Time;durP1;ratioP1;P1;durP2;ratioP2;P2;SDS_P1;SDS_P2;PMS_P1;PMS_P2;Temp;Humidity;BMP_temperature;BMP_pressure;BME280_temperature;BME280_humidity;BME280_pressure;Samples;Min_cycle;Max_cycle;Signal;HPM_P1;HPM_P2
2021/08/16 00:00:57;;;;;;;8.50;4.97;;;;;;;20.74;61.84;100291.28;5078660;28;20691;-72
2021/08/16 00:03:23;;;;;;;8.20;4.77;;;;;;;20.39;62.78;100309.41;5078531;28;20418;-73
2021/08/16 00:05:48;;;;;;;7.87;5.23;;;;;;;20.54;62.56;100310.59;5079286;28;20169;-74
2021/08/16 00:08:13;;;;;;;5.60;5.00;;;;;;;20.45;62.56;100303.00;5078544;28;20165;-76
2021/08/16 00:10:39;;;;;;;5.50;5.00;;;;;;;20.42;63.01;100282.81;5078423;28;20176;-72
2021/08/16 00:13:04;;;;;;;6.80;6.00;;;;;;;20.17;63.71;100267.88;5078831;28;20172;-75
2021/08/16 00:15:30;;;;;;;6.90;5.43;;;;;;;20.34;63.31;100253.97;5078430;28;20215;-76
2021/08/16 00:17:58;;;;;;;6.83;5.63;;;;;;;20.60;62.76;100248.59;5078421;28;20226;-73
2021/08/16 00:20:23;;;;;;;7.03;5.57;;;;;;;20.72;62.04;100242.81;5078244;28;20192;-75
2021/08/16 00:22:49;;;;;;;7.50;5.20;;;;;;;20.61;62.57;100253.81;5078267;28;20463;-72
2021/08/16 00:25:14;;;;;;;10.77;6.93;;;;;;;20.43;63.58;100252.78;5078069;28;20196;-73
2021/08/16 00:27:39;;;;;;;6.07;5.30;;;;;;;20.55;63.36;100247.91;5078630;28;20171;-72
2021/08/16 00:30:06;;;;;;;5.93;5.23;;;;;;;20.52;63.06;100248.88;5078431;28;20465;-72
2021/08/16 00:32:31;;;;;;;8.10;5.90;;;;;;;20.45;63.38;100253.56;5078242;28;20192;-72
2021/08/16 00:34:56;;;;;;;8.03;5.33;;;;;;;20.40;63.62;100254.66;5078422;28;20490;-74
2021/08/16 00:37:22;;;;;;;7.53;5.67;;;;;;;20.53;63.07;100262.06;5078350;28;20450;-74
2021/08/16 00:39:47;;;;;;;8.37;5.67;;;;;;;20.47;63.48;100269.38;5078303;28;20169;-75
2021/08/16 00:42:13;;;;;;;9.20;5.40;;;;;;;20.40;63.65;100265.25;5079254;28;20187;-74
2021/08/16 00:44:39;;;;;;;6.23;5.40;;;;;;;20.20;64.30;100256.28;5077503;28;20179;-74
2021/08/16 00:47:04;;;;;;;6.07;4.77;;;;;;;20.61;63.23;100247.66;5059014;28;20181;-74
2021/08/16 00:49:30;;;;;;;12.23;5.90;;;;;;;20.58;62.99;100247.78;5058788;28;20470;-78
2021/08/16 00:51:55;;;;;;;6.83;5.77;;;;;;;20.03;64.82;100241.06;5058232;28;20181;-78
2021/08/16 00:54:23;;;;;;;6.93;5.40;;;;;;;20.22;64.24;100240.38;5057983;28;20177;-77
2021/08/16 00:56:49;;;;;;;10.03;6.50;;;;;;;20.35;64.20;100242.47;5057724;28;20259;-77
2021/08/16 00:59:16;;;;;;;6.13;5.23;;;;;;;20.25;64.13;100258.78;5057539;28;20424;-77
2021/08/16 01:01:42;;;;;;;8.07;5.90;;;;;;;20.08;64.66;100265.56;5057919;28;20510;-78
2021/08/16 01:04:07;;;;;;;7.90;5.17;;;;;;;19.89;65.14;100267.16;5041400;28;20423;-77
2021/08/16 01:06:33;;;;;;;8.63;6.63;;;;;;;19.98;65.14;100256.25;5058173;28;20188;-77
2021/08/16 01:08:58;;;;;;;6.50;5.90;;;;;;;20.05;64.81;100254.22;5058173;28;20486;-77
2021/08/16 01:11:24;;;;;;;7.50;5.63;;;;;;;20.06;64.59;100243.59;5058990;28;20197;-75
2021/08/16 01:13:50;;;;;;;7.37;5.83;;;;;;;20.08;64.56;100233.81;5062098;28;20169;-77
2021/08/16 01:16:16;;;;;;;9.43;6.10;;;;;;;19.88;65.36;100231.03;5062129;28;20213;-77
2021/08/16 01:18:41;;;;;;;6.43;5.83;;;;;;;20.11;64.23;100227.53;5062658;28;20165;-77
2021/08/16 01:21:10;;;;;;;6.93;5.80;;;;;;;20.06;64.81;100225.06;5062193;28;20699;-77
2021/08/16 01:23:36;;;;;;;12.13;6.40;;;;;;;20.00;64.95;100223.50;5061731;28;20533;-77
2021/08/16 01:26:01;;;;;;;10.23;6.00;;;;;;;19.97;64.90;100223.63;5062459;28;20424;-77
2021/08/16 01:28:27;;;;;;;8.17;6.17;;;;;;;19.73;65.59;100222.72;5061799;28;20812;-77
2021/08/16 01:31:01;;;;;;;6.00;5.40;;;;;;;19.65;66.28;100230.09;5061914;28;20196;-77
2021/08/16 01:33:27;;;;;;;6.90;6.07;;;;;;;19.76;65.68;100232.34;5061392;28;20247;-75
2021/08/16 01:35:52;;;;;;;6.77;6.17;;;;;;;19.78;65.73;100227.84;5062079;28;20463;-78
2021/08/16 01:38:22;;;;;;;7.00;5.90;;;;;;;19.68;66.14;100224.69;5061775;28;20435;-77
2021/08/16 01:40:48;;;;;;;6.63;5.80;;;;;;;19.82;65.71;100219.78;5062235;28;20506;-77
2021/08/16 01:43:14;;;;;;;7.67;6.10;;;;;;;19.68;66.15;100219.38;5061539;28;20812;-76
2021/08/16 01:45:39;;;;;;;13.30;6.70;;;;;;;19.69;66.30;100216.69;5061522;28;20416;-76
2021/08/16 01:48:05;;;;;;;10.27;7.50;;;;;;;19.69;66.57;100226.41;5061996;28;20197;-77
2021/08/16 01:50:30;;;;;;;19.07;6.90;;;;;;;19.73;66.38;100217.44;5061327;28;20170;-77
2021/08/16 01:52:56;;;;;;;8.30;7.10;;;;;;;19.61;66.73;100215.25;5061248;28;20178;-76
2021/08/16 01:55:21;;;;;;;9.43;7.07;;;;;;;19.33;67.84;100213.59;5061251;28;20193;-75
2021/08/16 01:57:47;;;;;;;8.20;6.50;;;;;;;19.27;68.46;100203.25;5060908;28;20189;-77
2021/08/16 02:00:13;;;;;;;9.60;7.27;;;;;;;19.54;67.24;100214.59;5061014;28;20181;-76
2021/08/16 02:02:39;;;;;;;10.13;7.63;;;;;;;19.27;68.48;100208.53;5061036;28;20174;-77
2021/08/16 02:05:04;;;;;;;7.87;6.90;;;;;;;19.19;68.73;100201.72;5060754;28;20166;-75
2021/08/16 02:07:30;;;;;;;7.83;6.87;;;;;;;19.27;68.50;100198.81;5060158;28;20427;-77
2021/08/16 02:09:55;;;;;;;8.80;7.43;;;;;;;19.18;69.15;100199.13;5061170;28;20257;-77
2021/08/16 02:12:21;;;;;;;9.73;7.20;;;;;;;19.21;69.08;100192.88;5060856;28;20227;-77
2021/08/16 02:14:46;;;;;;;7.87;6.60;;;;;;;19.24;69.13;100198.94;5060653;28;20508;-78
2021/08/16 02:17:11;;;;;;;12.40;7.20;;;;;;;18.98;69.95;100189.25;5061273;28;20207;-76
2021/08/16 02:19:37;;;;;;;8.67;7.50;;;;;;;19.06;70.04;100197.75;5060727;28;20264;-76
2021/08/16 02:22:06;;;;;;;10.77;8.30;;;;;;;19.15;69.33;100194.81;5060655;28;20189;-78
2021/08/16 02:24:31;;;;;;;10.13;7.00;;;;;;;19.16;69.61;100201.81;5058206;28;20463;-77
2021/08/16 02:26:56;;;;;;;8.83;7.30;;;;;;;19.13;69.48;100196.66;5060572;28;20485;-76
2021/08/16 02:29:22;;;;;;;10.00;8.13;;;;;;;18.80;70.47;100198.63;5060941;28;20166;-75
2021/08/16 02:31:47;;;;;;;9.33;7.73;;;;;;;19.03;69.82;100192.59;5060543;28;20589;-77
2021/08/16 02:34:12;;;;;;;8.27;7.47;;;;;;;19.07;69.76;100191.56;5059770;28;20185;-77
2021/08/16 02:36:41;;;;;;;10.97;7.40;;;;;;;18.73;71.21;100195.31;5061174;28;20201;-77
2021/08/16 02:39:07;;;;;;;9.27;7.60;;;;;;;18.92;70.28;100182.41;5060435;28;20181;-76
2021/08/16 02:41:32;;;;;;;10.57;7.83;;;;;;;18.79;70.62;100192.47;5060485;28;20416;-77
2021/08/16 02:43:57;;;;;;;11.50;8.30;;;;;;;18.96;70.17;100183.16;5060705;28;20303;-77
2021/08/16 02:46:23;;;;;;;10.20;8.50;;;;;;;18.90;70.50;100188.63;5060047;28;20173;-78
2021/08/16 02:48:48;;;;;;;10.27;8.90;;;;;;;18.97;70.29;100176.94;5060287;28;20169;-76
2021/08/16 02:51:13;;;;;;;11.17;8.20;;;;;;;18.96;70.06;100183.16;5060850;28;20165;-76
2021/08/16 02:53:39;;;;;;;11.13;8.17;;;;;;;18.77;70.77;100177.59;5060169;28;20262;-75
2021/08/16 02:56:04;;;;;;;10.80;7.90;;;;;;;18.96;69.72;100172.59;5060138;28;20574;-76
2021/08/16 02:58:29;;;;;;;11.20;8.90;;;;;;;19.13;69.18;100170.22;5060464;28;20185;-76
2021/08/16 03:00:55;;;;;;;10.13;8.80;;;;;;;19.42;68.17;100160.41;5060345;28;20477;-76
2021/08/16 03:03:20;;;;;;;12.50;8.77;;;;;;;19.42;68.09;100154.25;5059847;28;20200;-77
2021/08/16 03:05:45;;;;;;;12.07;8.53;;;;;;;19.41;67.87;100145.44;5060564;28;20169;-75
2021/08/16 03:08:11;;;;;;;12.63;8.47;;;;;;;19.58;67.45;100146.59;5060009;28;20189;-76
2021/08/16 03:10:36;;;;;;;8.90;7.70;;;;;;;19.56;67.63;100151.09;5059834;28;20212;-77
2021/08/16 03:13:02;;;;;;;9.47;8.57;;;;;;;19.46;68.09;100153.22;5060505;28;20173;-77
2021/08/16 03:15:27;;;;;;;9.80;8.30;;;;;;;19.40;68.24;100150.78;5059699;28;20201;-75
2021/08/16 03:17:53;;;;;;;13.07;9.77;;;;;;;19.16;69.72;100153.41;5059754;28;20173;-77
2021/08/16 03:20:18;;;;;;;9.60;8.57;;;;;;;19.34;68.50;100134.22;5060062;28;20181;-77
2021/08/16 03:22:43;;;;;;;13.03;8.97;;;;;;;19.29;69.01;100127.41;5059475;28;20170;-76
2021/08/16 03:25:10;;;;;;;10.43;8.50;;;;;;;19.30;68.81;100129.13;5059329;28;20495;-77
2021/08/16 03:27:36;;;;;;;14.00;12.60;;;;;;;19.28;68.87;100125.66;5060320;28;20170;-75
2021/08/16 03:30:04;;;;;;;10.87;9.77;;;;;;;19.29;68.67;100122.09;5059631;28;20818;-77
2021/08/16 03:32:30;;;;;;;17.83;10.60;;;;;;;19.43;68.38;100122.47;5059557;28;20509;-76
2021/08/16 03:34:55;;;;;;;10.50;8.57;;;;;;;19.49;68.49;100114.28;5059310;28;20415;-76
2021/08/16 03:37:20;;;;;;;11.60;9.20;;;;;;;19.33;68.94;100113.16;5059354;28;20205;-77
2021/08/16 03:39:45;;;;;;;8.93;7.73;;;;;;;19.35;68.97;100108.69;5059233;28;20181;-76
2021/08/16 03:42:11;;;;;;;8.80;8.00;;;;;;;19.56;68.05;100106.16;5059905;28;20412;-76
2021/08/16 03:44:36;;;;;;;12.50;8.03;;;;;;;19.44;68.67;100105.66;5059139;28;20534;-76
2021/08/16 03:47:02;;;;;;;11.03;7.90;;;;;;;19.26;68.77;100103.72;5059128;28;20174;-76
2021/08/16 03:49:27;;;;;;;9.63;8.60;;;;;;;18.79;69.54;100102.69;5059581;28;20180;-75
2021/08/16 03:51:52;;;;;;;9.73;7.37;;;;;;;19.05;69.61;100095.66;5059194;28;20244;-76
2021/08/16 03:54:18;;;;;;;10.40;7.83;;;;;;;19.37;68.29;100093.63;5058929;28;20198;-77
2021/08/16 03:56:43;;;;;;;11.20;9.10;;;;;;;19.25;68.52;100096.72;5059429;28;20193;-76
2021/08/16 03:59:08;;;;;;;13.10;8.00;;;;;;;19.48;67.69;100094.09;5058939;28;20185;-75
2021/08/16 04:01:33;;;;;;;10.10;7.10;;;;;;;19.33;68.18;100100.78;5058885;28;20170;-77
2021/08/16 04:04:01;;;;;;;8.93;7.23;;;;;;;19.34;67.97;100091.09;5059205;28;20165;-77
2021/08/16 04:06:27;;;;;;;9.87;7.43;;;;;;;19.41;67.91;100100.50;5058673;28;20181;-75
2021/08/16 04:08:52;;;;;;;12.00;7.60;;;;;;;19.08;69.09;100103.47;5058852;28;20423;-76
2021/08/16 04:11:17;;;;;;;11.27;8.00;;;;;;;19.38;67.78;100095.34;5059442;28;20173;-78
2021/08/16 04:13:42;;;;;;;10.33;8.93;;;;;;;18.88;70.14;100101.53;5058622;28;20547;-79
2021/08/16 04:16:08;;;;;;;15.33;9.60;;;;;;;19.08;69.63;100102.59;5058656;28;20213;-79
2021/08/16 04:18:33;;;;;;;14.03;9.27;;;;;;;18.92;70.45;100097.03;5059228;28;20257;-76
2021/08/16 04:20:59;;;;;;;12.77;9.20;;;;;;;19.30;69.32;100092.97;5058492;28;20181;-77
2021/08/16 04:23:24;;;;;;;10.20;9.10;;;;;;;18.96;70.67;100099.50;5058321;28;20664;-77
2021/08/16 04:25:50;;;;;;;12.70;9.97;;;;;;;18.82;71.25;100097.31;5058058;28;20274;-76
2021/08/16 04:28:15;;;;;;;10.63;9.40;;;;;;;18.75;71.67;100102.84;5058363;28;20169;-76
2021/08/16 04:30:40;;;;;;;15.13;10.47;;;;;;;19.00;71.12;100105.53;5058344;28;20173;-76
2021/08/16 04:33:06;;;;;;;12.53;10.30;;;;;;;18.63;72.49;100102.38;5058842;28;20259;-72
2021/08/16 04:35:32;;;;;;;15.67;9.87;;;;;;;18.74;72.17;100094.06;5058742;28;20284;-76
2021/08/16 04:37:57;;;;;;;11.97;10.37;;;;;;;18.72;71.87;100093.25;5058480;28;20219;-73
2021/08/16 04:40:22;;;;;;;13.90;10.90;;;;;;;18.83;71.76;100090.25;5058844;28;20523;-74
2021/08/16 04:42:48;;;;;;;13.20;10.40;;;;;;;18.83;71.74;100093.75;5058093;28;20174;-75
2021/08/16 04:45:13;;;;;;;24.00;13.10;;;;;;;18.83;71.84;100099.03;5058005;28;20295;-75
2021/08/16 04:47:42;;;;;;;12.97;9.73;;;;;;;19.13;71.11;100093.63;5057768;28;20170;-73
2021/08/16 04:50:07;;;;;;;12.70;9.57;;;;;;;18.94;71.52;100090.78;5058130;28;20170;-74
2021/08/16 04:52:33;;;;;;;13.83;10.20;;;;;;;18.87;71.35;100080.44;5057237;28;20589;-75
2021/08/16 04:54:59;;;;;;;19.40;12.60;;;;;;;19.27;70.48;100085.16;5058276;28;20204;-73
2021/08/16 04:57:33;;;;;;;15.30;10.50;;;;;;;19.24;70.22;100085.28;5058047;28;20288;-73
2021/08/16 04:59:58;;;;;;;14.90;10.43;;;;;;;19.08;71.06;100079.69;5058060;28;20177;-74
2021/08/16 05:02:24;;;;;;;14.50;11.50;;;;;;;18.76;72.09;100079.03;5058222;28;20427;-73
2021/08/16 05:04:53;;;;;;;17.37;11.80;;;;;;;18.75;71.98;100085.22;5057883;28;20332;-76
2021/08/16 05:07:19;;;;;;;21.80;12.63;;;;;;;18.95;71.23;100070.50;5058220;28;20495;-75
2021/08/16 05:09:45;;;;;;;13.60;11.80;;;;;;;19.16;70.39;100069.72;5058503;28;20419;-73
2021/08/16 05:12:10;;;;;;;17.60;12.20;;;;;;;18.89;71.06;100065.41;5076379;28;20703;-77
2021/08/16 05:14:35;;;;;;;15.20;12.13;;;;;;;18.83;71.81;100067.34;5077901;28;20180;-81
2021/08/16 05:17:01;;;;;;;17.00;14.50;;;;;;;19.07;70.81;100062.13;5078223;28;20193;-75
2021/08/16 05:19:26;;;;;;;14.50;12.70;;;;;;;18.74;71.82;100067.66;5078081;28;20196;-77
2021/08/16 05:21:52;;;;;;;18.87;13.63;;;;;;;18.68;72.37;100074.00;5077073;28;20192;-75
2021/08/16 05:24:17;;;;;;;16.03;12.70;;;;;;;19.00;71.60;100068.56;5077542;28;20516;-77
2021/08/16 05:26:42;;;;;;;19.03;13.10;;;;;;;18.90;71.60;100075.06;5077854;28;20176;-76
2021/08/16 05:29:08;;;;;;;17.47;13.70;;;;;;;18.75;71.87;100064.09;5078063;28;20185;-76
2021/08/16 05:31:33;;;;;;;14.73;12.07;;;;;;;18.94;71.48;100080.22;5077604;28;20180;-74
2021/08/16 05:33:59;;;;;;;15.00;11.97;;;;;;;18.81;71.96;100073.59;5077481;28;20172;-75
2021/08/16 05:36:24;;;;;;;15.77;13.30;;;;;;;18.81;71.76;100073.59;5078044;28;20208;-76
2021/08/16 05:38:49;;;;;;;14.80;13.00;;;;;;;18.96;71.15;100072.22;5077665;28;20187;-74
2021/08/16 05:41:14;;;;;;;16.40;13.13;;;;;;;18.58;72.78;100074.38;5077423;28;20180;-75
2021/08/16 05:43:40;;;;;;;14.23;12.83;;;;;;;18.76;72.17;100080.81;5077893;28;20565;-73
2021/08/16 05:46:05;;;;;;;15.47;13.00;;;;;;;18.79;72.10;100081.56;5077243;28;20193;-75
2021/08/16 05:48:30;;;;;;;16.13;13.67;;;;;;;18.55;72.88;100071.84;5077345;28;20176;-75
2021/08/16 05:50:56;;;;;;;17.27;14.27;;;;;;;18.62;72.32;100068.09;5078128;28;20531;-76
2021/08/16 05:53:21;;;;;;;19.27;13.93;;;;;;;19.09;71.40;100076.16;5077336;28;20426;-74
2021/08/16 05:55:46;;;;;;;15.13;13.53;;;;;;;18.99;71.22;100072.09;5077353;28;20209;-75
2021/08/16 05:58:12;;;;;;;17.23;14.13;;;;;;;19.01;71.18;100075.53;5079529;28;20172;-75
2021/08/16 06:00:37;;;;;;;15.00;13.50;;;;;;;18.88;71.38;100072.50;5080924;28;20437;-73
2021/08/16 06:03:02;;;;;;;20.63;13.20;;;;;;;19.40;69.69;100075.00;5081020;28;20176;-76
2021/08/16 06:05:28;;;;;;;17.53;14.00;;;;;;;19.31;70.26;100078.00;5081513;28;20545;-75
2021/08/16 06:07:53;;;;;;;19.67;13.10;;;;;;;19.43;69.75;100074.91;5081060;28;20200;-74
2021/08/16 06:10:18;;;;;;;15.23;13.63;;;;;;;18.92;71.06;100070.63;5080931;28;20188;-74
2021/08/16 06:12:43;;;;;;;22.33;13.87;;;;;;;19.42;69.51;100074.97;5081320;28;20180;-74
2021/08/16 06:15:09;;;;;;;16.20;13.40;;;;;;;19.00;70.55;100071.19;5079868;28;20168;-73
2021/08/16 06:17:37;;;;;;;19.03;13.90;;;;;;;19.12;70.67;100080.44;5080708;28;20172;-74
2021/08/16 06:20:04;;;;;;;16.43;13.43;;;;;;;19.27;70.23;100079.03;5080893;28;20180;-74
2021/08/16 06:22:30;;;;;;;15.23;13.70;;;;;;;19.09;70.66;100070.88;5080292;28;20835;-74
2021/08/16 06:24:55;;;;;;;19.97;13.87;;;;;;;19.30;69.99;100077.13;5080504;28;20446;-78
2021/08/16 06:27:21;;;;;;;20.27;13.93;;;;;;;19.26;70.15;100075.50;5080937;28;20704;-72
2021/08/16 06:29:46;;;;;;;15.53;13.17;;;;;;;19.66;68.32;100070.47;5080466;28;20230;-73
2021/08/16 06:32:11;;;;;;;15.53;12.93;;;;;;;19.42;69.39;100073.16;5080298;28;20172;-73
2021/08/16 06:34:40;;;;;;;15.70;11.70;;;;;;;19.52;68.97;100071.91;5080859;28;20160;-71
2021/08/16 06:37:05;;;;;;;13.83;12.43;;;;;;;19.27;69.96;100065.81;5080407;28;20239;-73
2021/08/16 06:39:31;;;;;;;16.17;12.67;;;;;;;19.17;70.35;100065.28;5080499;28;20817;-71
2021/08/16 06:41:56;;;;;;;14.93;12.60;;;;;;;19.04;70.91;100070.16;5080459;28;20255;-72
2021/08/16 06:44:24;;;;;;;19.63;12.40;;;;;;;19.19;70.14;100074.03;5080087;28;20179;-71
2021/08/16 06:46:49;;;;;;;18.03;12.70;;;;;;;19.52;69.02;100060.44;5080254;28;20816;-73
2021/08/16 06:49:15;;;;;;;15.00;12.70;;;;;;;19.52;68.86;100077.19;5080580;28;20486;-76
2021/08/16 06:51:41;;;;;;;16.93;11.90;;;;;;;19.66;68.15;100062.56;5080110;28;20171;-71
2021/08/16 06:54:07;;;;;;;16.83;11.97;;;;;;;19.71;68.34;100065.03;5080015;28;20588;-75
2021/08/16 06:56:33;;;;;;;15.03;11.33;;;;;;;19.34;69.14;100070.78;5080134;28;20447;-76
2021/08/16 06:58:58;;;;;;;16.57;12.00;;;;;;;19.50;68.82;100067.59;5079868;28;20180;-75
2021/08/16 07:01:25;;;;;;;21.00;11.20;;;;;;;19.42;68.69;100070.53;5080111;28;20521;-75
2021/08/16 07:03:52;;;;;;;13.73;10.77;;;;;;;19.32;69.01;100079.69;5080210;28;20249;-74
2021/08/16 07:06:17;;;;;;;21.37;12.70;;;;;;;19.41;68.59;100082.00;5079118;28;20427;-73
2021/08/16 07:08:42;;;;;;;19.50;11.63;;;;;;;19.17;69.33;100075.84;5079509;28;20756;-70
2021/08/16 07:11:07;;;;;;;16.00;11.67;;;;;;;19.57;68.36;100076.16;5079584;28;20169;-75
2021/08/16 07:13:33;;;;;;;17.30;12.23;;;;;;;19.46;68.27;100077.41;5079536;28;20207;-76
2021/08/16 07:15:58;;;;;;;17.07;13.47;;;;;;;19.62;67.66;100074.16;5079967;28;20205;-71
2021/08/16 07:18:23;;;;;;;16.53;13.00;;;;;;;19.25;69.10;100075.56;5080062;28;20189;-70
2021/08/16 07:20:49;;;;;;;19.47;13.00;;;;;;;19.41;68.36;100083.81;5079667;28;20184;-72
2021/08/16 07:23:14;;;;;;;15.73;12.30;;;;;;;19.37;68.07;100085.69;5079309;28;20315;-75
2021/08/16 07:25:39;;;;;;;16.73;12.10;;;;;;;19.20;68.80;100081.03;5079627;28;20302;-76
2021/08/16 07:28:05;;;;;;;23.13;18.90;;;;;;;19.38;68.10;100089.22;5079404;28;20172;-70
2021/08/16 07:30:30;;;;;;;17.03;13.10;;;;;;;18.96;69.16;100081.00;5079305;28;20429;-71
2021/08/16 07:32:55;;;;;;;21.13;12.47;;;;;;;19.17;68.57;100076.72;5079509;28;20161;-71
2021/08/16 07:35:21;;;;;;;20.53;14.40;;;;;;;19.33;68.08;100082.28;5078903;28;20499;-72
2021/08/16 07:37:47;;;;;;;22.77;12.23;;;;;;;19.24;68.61;100079.13;5079048;28;20207;-70
2021/08/16 07:40:12;;;;;;;16.57;13.73;;;;;;;19.40;67.92;100080.28;5079671;28;20411;-72
2021/08/16 07:42:39;;;;;;;18.33;13.20;;;;;;;19.47;67.63;100073.84;5078184;28;20173;-73
2021/08/16 07:45:06;;;;;;;15.37;12.10;;;;;;;19.52;67.59;100082.47;5078626;28;20480;-72
2021/08/16 07:47:31;;;;;;;34.97;28.13;;;;;;;19.75;66.77;100067.47;5079312;28;20411;-74
2021/08/16 07:49:56;;;;;;;12.83;11.50;;;;;;;20.19;65.07;100070.16;5078875;28;20442;-73
2021/08/16 07:52:22;;;;;;;14.80;11.60;;;;;;;20.09;65.21;100066.16;5078821;28;20187;-72
2021/08/16 07:54:47;;;;;;;17.13;11.30;;;;;;;20.95;62.71;100059.03;5078974;28;20184;-76
2021/08/16 07:57:13;;;;;;;15.73;12.20;;;;;;;20.49;63.35;100061.88;5078577;28;20208;-72
2021/08/16 07:59:38;;;;;;;12.33;10.73;;;;;;;20.31;63.97;100066.16;5078641;28;20173;-76
2021/08/16 08:02:03;;;;;;;19.00;13.40;;;;;;;20.60;63.31;100052.59;5079250;28;20184;-74
2021/08/16 08:04:29;;;;;;;12.30;10.67;;;;;;;20.34;63.95;100055.44;5078509;28;20447;-75
2021/08/16 08:06:54;;;;;;;22.50;12.47;;;;;;;20.34;63.61;100066.03;5078716;28;20187;-75
2021/08/16 08:09:20;;;;;;;20.23;13.17;;;;;;;19.80;65.42;100056.75;5079066;28;20168;-74
2021/08/16 08:11:46;;;;;;;18.80;13.07;;;;;;;19.73;65.33;100066.69;5078581;28;20164;-74
2021/08/16 08:14:11;;;;;;;13.63;11.90;;;;;;;19.71;65.69;100065.03;5078325;28;20430;-74
2021/08/16 08:16:36;;;;;;;15.33;12.37;;;;;;;20.15;64.59;100060.63;5078740;28;20322;-74
2021/08/16 08:19:02;;;;;;;17.00;12.40;;;;;;;20.05;64.58;100064.56;5078353;28;20180;-74
2021/08/16 08:21:27;;;;;;;16.57;12.57;;;;;;;20.36;63.83;100069.47;5077678;28;20558;-73
2021/08/16 08:23:52;;;;;;;15.00;11.00;;;;;;;20.55;62.37;100065.19;5078591;28;20217;-74
2021/08/16 08:26:18;;;;;;;11.40;10.20;;;;;;;20.64;62.24;100068.28;5078094;28;20208;-73
2021/08/16 08:28:43;;;;;;;11.87;10.63;;;;;;;20.98;61.39;100066.00;5078603;28;20208;-75
2021/08/16 08:31:08;;;;;;;14.50;10.20;;;;;;;21.50;59.02;100062.75;5078434;28;20177;-74
2021/08/16 08:33:34;;;;;;;17.17;10.77;;;;;;;21.32;59.66;100061.81;5078195;28;20449;-80
2021/08/16 08:35:59;;;;;;;12.97;10.70;;;;;;;21.92;57.45;100045.75;5061171;28;20196;-73
2021/08/16 08:38:24;;;;;;;13.40;8.77;;;;;;;21.16;58.88;100056.34;5078265;28;20169;-73
2021/08/16 08:40:52;;;;;;;13.40;9.50;;;;;;;21.71;58.74;100045.00;5078177;28;20193;-75
2021/08/16 08:43:17;;;;;;;12.57;9.30;;;;;;;21.61;58.54;100049.00;5077783;28;20193;-75
2021/08/16 08:45:43;;;;;;;13.17;8.83;;;;;;;21.03;59.88;100069.31;5078374;28;20430;-74
2021/08/16 08:48:09;;;;;;;13.83;8.83;;;;;;;20.71;60.42;100058.31;5078048;28;20173;-74
2021/08/16 08:50:34;;;;;;;13.60;9.30;;;;;;;21.01;59.83;100055.25;5078431;28;20911;-74
2021/08/16 08:53:02;;;;;;;13.10;9.13;;;;;;;21.49;58.78;100053.09;5077819;28;20180;-75
2021/08/16 08:55:27;;;;;;;9.70;8.43;;;;;;;21.29;58.87;100060.16;5077795;28;20189;-71
2021/08/16 08:57:53;;;;;;;9.63;8.63;;;;;;;21.45;58.29;100067.41;5078459;28;20853;-71
2021/08/16 09:00:19;;;;;;;11.40;9.60;;;;;;;20.76;60.47;100060.78;5077876;28;20423;-71
2021/08/16 09:02:58;;;;;;;12.00;9.37;;;;;;;21.08;60.03;100061.13;5077982;28;20192;-71
2021/08/16 09:05:24;;;;;;;11.53;9.30;;;;;;;21.01;60.53;100072.03;5077872;28;20176;-71
2021/08/16 09:07:49;;;;;;;11.73;9.83;;;;;;;20.64;61.34;100072.75;5077924;28;20431;-73
2021/08/16 09:10:15;;;;;;;14.93;9.70;;;;;;;20.68;62.05;100082.28;5078264;28;20173;-70
2021/08/16 09:12:42;;;;;;;11.30;10.20;;;;;;;20.58;63.94;100080.94;5077205;28;20241;-71
2021/08/16 09:15:18;;;;;;;14.83;11.13;;;;;;;19.70;67.55;100085.34;5077641;28;20864;-74
2021/08/16 09:17:45;;;;;;;13.43;11.27;;;;;;;19.42;69.65;100089.03;5077719;28;20447;-71
2021/08/16 09:20:22;;;;;;;16.03;12.70;;;;;;;18.93;72.09;100094.31;5077835;28;20419;-73
2021/08/16 09:23:10;;;;;;;16.40;13.80;;;;;;;18.88;72.90;100082.16;5077478;28;20469;-72
2021/08/16 09:25:38;;;;;;;17.50;13.07;;;;;;;19.09;72.32;100077.91;5077513;28;20407;-72
2021/08/16 09:28:05;;;;;;;21.90;16.03;;;;;;;19.26;72.58;100095.81;5077549;28;20464;-73
2021/08/16 09:30:34;;;;;;;24.20;14.83;;;;;;;19.15;73.42;100094.41;5077539;28;20426;-72
2021/08/16 09:33:17;;;;;;;20.37;14.20;;;;;;;19.07;73.35;100087.69;5079295;28;20486;-73
2021/08/16 09:35:59;;;;;;;18.47;13.43;;;;;;;19.00;73.87;100095.81;5081628;28;20511;-73
2021/08/16 09:38:32;;;;;;;21.73;15.60;;;;;;;18.76;74.33;100091.38;5081788;28;20796;-72
2021/08/16 09:40:58;;;;;;;18.07;13.47;;;;;;;19.14;73.23;100086.53;5081479;28;20442;-74
2021/08/16 09:43:27;;;;;;;15.33;12.60;;;;;;;18.64;74.58;100084.72;5080633;28;20540;-73
2021/08/16 09:45:52;;;;;;;14.37;12.87;;;;;;;18.85;73.73;100070.78;5081450;28;20222;-72
2021/08/16 09:48:22;;;;;;;13.20;11.93;;;;;;;18.78;73.79;100063.13;5081314;28;20512;-72
2021/08/16 09:50:54;;;;;;;17.27;13.17;;;;;;;18.84;74.07;100069.06;5081645;28;20430;-72
2021/08/16 09:53:21;;;;;;;18.63;12.63;;;;;;;18.85;73.13;100049.66;5081157;28;20423;-73
2021/08/16 09:55:48;;;;;;;15.53;12.53;;;;;;;19.17;72.03;100050.31;5081116;28;20455;-73
2021/08/16 09:58:15;;;;;;;16.50;11.80;;;;;;;18.68;73.65;100055.53;5081211;28;20414;-69
2021/08/16 10:00:42;;;;;;;16.87;11.50;;;;;;;18.55;74.95;100071.84;5081130;28;20883;-69
2021/08/16 10:03:08;;;;;;;14.10;12.40;;;;;;;18.37;75.37;100074.19;5080619;28;20438;-71
2021/08/16 10:05:38;;;;;;;17.53;11.77;;;;;;;18.32;76.29;100084.03;5080945;28;20422;-71
2021/08/16 10:08:06;;;;;;;11.97;10.63;;;;;;;18.26;76.66;100084.25;5080743;28;20429;-71
2021/08/16 10:10:32;;;;;;;13.40;10.70;;;;;;;18.41;76.61;100086.38;5080497;28;20452;-69
2021/08/16 10:12:57;;;;;;;15.70;11.73;;;;;;;18.11;77.17;100089.09;5079983;28;20423;-71
2021/08/16 10:15:22;;;;;;;10.57;9.53;;;;;;;18.60;74.99;100086.59;5079753;28;20472;-70
2021/08/16 10:17:48;;;;;;;11.00;8.97;;;;;;;18.09;76.66;100109.41;5080297;28;20165;-72
2021/08/16 10:20:15;;;;;;;9.67;8.73;;;;;;;18.46;75.63;100094.16;5079463;28;20461;-70
2021/08/16 10:22:41;;;;;;;9.63;8.70;;;;;;;18.40;76.24;100091.69;5079743;28;20192;-71
2021/08/16 10:25:14;;;;;;;10.57;8.60;;;;;;;18.51;76.09;100100.16;5081059;28;20526;-70
2021/08/16 10:27:40;;;;;;;9.87;8.97;;;;;;;18.84;74.61;100099.91;5080535;28;20415;-71
2021/08/16 10:30:11;;;;;;;8.90;7.97;;;;;;;18.65;74.70;100103.16;5080914;28;20441;-71
2021/08/16 10:32:37;;;;;;;9.30;8.10;;;;;;;18.75;74.24;100102.84;5080503;28;20750;-70
2021/08/16 10:35:10;;;;;;;13.53;8.10;;;;;;;18.83;74.31;100101.69;5080361;28;20422;-69
2021/08/16 10:37:37;;;;;;;9.40;8.40;;;;;;;18.58;75.33;100101.66;5080491;28;20204;-71
2021/08/16 10:40:21;;;;;;;11.10;9.20;;;;;;;18.44;75.26;100104.75;5080205;28;20725;-72
2021/08/16 10:42:48;;;;;;;9.57;7.70;;;;;;;18.68;74.01;100102.19;5080220;28;20545;-71
2021/08/16 10:45:26;;;;;;;7.90;7.20;;;;;;;18.21;74.79;100102.00;5079174;28;20411;-70
2021/08/16 10:48:00;;;;;;;10.17;7.87;;;;;;;18.28;75.53;100117.59;5080411;28;20468;-69
2021/08/16 10:50:27;;;;;;;9.30;6.37;;;;;;;18.23;74.76;100116.03;5080369;28;20851;-69
2021/08/16 10:53:03;;;;;;;7.17;6.50;;;;;;;18.24;75.26;100115.97;5080050;28;20435;-72
2021/08/16 10:55:30;;;;;;;6.90;5.97;;;;;;;18.13;74.80;100111.03;5079948;28;20418;-71
2021/08/16 10:57:56;;;;;;;6.70;5.90;;;;;;;18.26;73.92;100108.84;5080335;28;20662;-70
2021/08/16 11:00:21;;;;;;;8.60;6.17;;;;;;;18.20;74.29;100111.69;5080170;28;20423;-71
2021/08/16 11:02:53;;;;;;;8.40;6.13;;;;;;;18.49;73.53;100110.72;5080512;28;20173;-69
2021/08/16 11:05:28;;;;;;;6.00;5.37;;;;;;;18.14;74.23;100112.75;5079596;28;21292;-69
2021/08/16 11:07:53;;;;;;;6.50;5.80;;;;;;;18.15;74.17;100117.09;5079846;28;20825;-71
2021/08/16 11:10:19;;;;;;;7.70;5.83;;;;;;;17.93;75.68;100116.06;5079741;28;20422;-70
2021/08/16 11:12:45;;;;;;;6.70;6.10;;;;;;;17.63;75.97;100119.56;5079879;28;20584;-71